createdAt,value
2018-09-29T00:00:05.966Z,2.33
2018-09-29T00:02:34.221Z,2.67
2018-09-29T00:05:02.503Z,2.60
2018-09-29T00:07:30.774Z,2.53
2018-09-29T00:09:59.086Z,2.87
2018-09-29T00:12:27.410Z,3.13
2018-09-29T00:14:55.657Z,3.10
2018-09-29T00:17:23.925Z,3.00
2018-09-29T00:19:52.179Z,2.23
2018-09-29T00:22:20.560Z,2.87
2018-09-29T00:24:48.943Z,2.23
2018-09-29T00:27:17.233Z,2.73
2018-09-29T00:29:45.495Z,2.70
2018-09-29T00:32:13.723Z,3.03
2018-09-29T00:34:41.986Z,3.23
2018-09-29T00:37:10.290Z,3.20
2018-09-29T00:39:38.583Z,2.97
2018-09-29T00:42:06.845Z,2.70
2018-09-29T00:44:35.113Z,2.90
2018-09-29T00:47:03.374Z,3.83
2018-09-29T00:49:31.624Z,3.03
2018-09-29T00:51:59.905Z,2.70
2018-09-29T00:54:28.214Z,2.80
2018-09-29T00:56:56.465Z,2.67
2018-09-29T00:59:24.775Z,3.10
2018-09-29T01:01:53.025Z,2.73
2018-09-29T01:04:21.304Z,2.50
2018-09-29T01:06:49.656Z,2.40
2018-09-29T01:09:17.938Z,3.40
2018-09-29T01:11:46.193Z,2.43
2018-09-29T01:14:14.681Z,2.80
2018-09-29T01:16:42.931Z,3.00
2018-09-29T01:19:11.165Z,3.30
2018-09-29T01:21:39.606Z,2.63
2018-09-29T01:24:07.890Z,4.07
2018-09-29T01:26:36.153Z,2.83
2018-09-29T01:29:04.395Z,3.10
2018-09-29T01:31:32.674Z,3.33
2018-09-29T01:34:00.946Z,3.27
2018-09-29T01:36:29.286Z,3.40
2018-09-29T01:38:57.529Z,3.00
2018-09-29T01:41:25.846Z,3.53
2018-09-29T01:43:54.102Z,3.50
2018-09-29T01:46:22.442Z,3.20
2018-09-29T01:48:50.726Z,3.30
2018-09-29T01:51:18.989Z,3.03
2018-09-29T01:53:47.225Z,2.70
2018-09-29T01:56:15.481Z,2.80
2018-09-29T01:58:43.726Z,3.50
2018-09-29T02:01:12.002Z,3.27
2018-09-29T02:03:40.273Z,3.93
2018-09-29T02:06:08.528Z,3.37
2018-09-29T02:08:37.247Z,3.53
2018-09-29T02:11:05.593Z,3.30
2018-09-29T02:13:33.834Z,3.27
2018-09-29T02:16:02.094Z,3.60
2018-09-29T02:18:30.369Z,2.97
2018-09-29T02:20:58.669Z,3.37
2018-09-29T02:23:26.925Z,3.53
2018-09-29T02:25:58.674Z,3.37
2018-09-29T02:28:26.972Z,3.50
2018-09-29T02:30:55.238Z,3.80
2018-09-29T02:33:23.580Z,3.63
2018-09-29T02:35:51.829Z,3.70
2018-09-29T02:38:20.069Z,3.50
2018-09-29T02:40:48.346Z,5.00
2018-09-29T02:43:16.786Z,3.37
2018-09-29T02:45:45.029Z,3.83
2018-09-29T02:48:13.310Z,3.30
2018-09-29T02:50:41.574Z,3.40
2018-09-29T02:53:09.837Z,3.90
2018-09-29T02:55:38.206Z,3.67
2018-09-29T02:58:06.559Z,3.83
2018-09-29T03:00:35.254Z,3.00
2018-09-29T03:03:03.606Z,3.83
2018-09-29T03:05:31.865Z,3.83
2018-09-29T03:08:00.113Z,3.20
2018-09-29T03:10:28.562Z,3.90
2018-09-29T03:12:56.818Z,3.77
2018-09-29T03:15:25.063Z,4.40
2018-09-29T03:17:53.354Z,3.60
2018-09-29T03:20:21.646Z,3.43
2018-09-29T03:22:49.903Z,3.73
2018-09-29T03:25:18.276Z,4.30
2018-09-29T03:27:46.524Z,2.50
2018-09-29T03:30:14.816Z,3.00
2018-09-29T03:32:43.145Z,4.00
2018-09-29T03:35:11.398Z,3.07
2018-09-29T03:37:39.799Z,3.73
2018-09-29T03:42:31.211Z,3.57
2018-09-29T03:44:59.569Z,3.10
2018-09-29T03:47:27.859Z,3.07
2018-09-29T03:49:56.269Z,4.00
2018-09-29T03:52:24.537Z,2.97
2018-09-29T03:54:52.823Z,4.07
2018-09-29T03:57:21.074Z,3.50
2018-09-29T03:59:49.338Z,3.40
2018-09-29T04:02:17.619Z,3.93
2018-09-29T04:04:46.057Z,3.93
2018-09-29T04:07:14.327Z,3.80
2018-09-29T04:09:42.607Z,3.33
2018-09-29T04:12:10.891Z,4.57
2018-09-29T04:14:39.133Z,4.33
2018-09-29T04:17:07.443Z,4.53
2018-09-29T04:19:35.784Z,3.80
2018-09-29T04:22:04.044Z,4.20
2018-09-29T04:24:32.255Z,3.90
2018-09-29T04:27:00.533Z,5.13
2018-09-29T04:29:28.785Z,4.67
2018-09-29T04:31:57.103Z,4.57
2018-09-29T04:34:25.357Z,4.63
2018-09-29T04:36:53.617Z,4.80
2018-09-29T04:39:21.909Z,4.90
2018-09-29T04:41:50.463Z,4.13
2018-09-29T04:44:18.862Z,4.40
2018-09-29T04:46:47.147Z,4.47
2018-09-29T04:49:15.523Z,4.73
2018-09-29T04:51:43.728Z,4.67
2018-09-29T04:54:11.976Z,5.03
2018-09-29T04:56:40.253Z,5.17
2018-09-29T04:59:08.553Z,5.37
2018-09-29T05:01:36.895Z,4.30
2018-09-29T05:04:05.322Z,4.23
2018-09-29T05:06:33.655Z,4.00
2018-09-29T05:09:01.874Z,4.27
2018-09-29T05:11:30.263Z,4.97
2018-09-29T05:13:58.818Z,4.70
2018-09-29T05:16:27.042Z,4.70
2018-09-29T05:18:55.281Z,4.20
2018-09-29T05:21:23.556Z,5.20
2018-09-29T05:23:51.932Z,4.70
2018-09-29T05:26:20.217Z,4.83
2018-09-29T05:28:48.509Z,3.87
2018-09-29T05:31:16.861Z,5.17
2018-09-29T05:33:46.016Z,4.43
2018-09-29T05:36:14.434Z,5.33
2018-09-29T05:38:43.048Z,5.27
2018-09-29T05:41:11.333Z,4.63
2018-09-29T05:43:39.818Z,4.33
2018-09-29T05:46:08.093Z,5.27
2018-09-29T05:48:36.389Z,4.70
2018-09-29T05:51:04.779Z,4.80
2018-09-29T05:53:33.123Z,4.90
2018-09-29T05:56:01.441Z,4.90
2018-09-29T05:58:29.713Z,5.27
2018-09-29T06:00:58.048Z,4.97
2018-09-29T06:03:26.460Z,4.97
2018-09-29T06:05:54.784Z,5.10
2018-09-29T06:08:23.004Z,5.30
2018-09-29T06:10:51.293Z,5.60
2018-09-29T06:13:19.844Z,4.73
2018-09-29T06:15:48.146Z,5.37
2018-09-29T06:18:16.428Z,6.33
2018-09-29T06:20:44.764Z,6.00
2018-09-29T06:23:13.285Z,6.33
2018-09-29T06:25:41.589Z,5.67
2018-09-29T06:28:09.872Z,5.93
2018-09-29T06:30:38.210Z,6.60
2018-09-29T06:33:06.709Z,6.10
2018-09-29T06:35:35.126Z,6.27
2018-09-29T06:38:04.928Z,5.57
2018-09-29T06:40:33.469Z,6.20
2018-09-29T06:43:01.995Z,6.83
2018-09-29T06:45:31.878Z,6.27
2018-09-29T06:48:02.279Z,6.67
2018-09-29T06:50:33.284Z,5.77
2018-09-29T06:53:03.203Z,6.50
2018-09-29T06:55:37.958Z,6.57
2018-09-29T06:58:06.426Z,6.10
2018-09-29T07:00:34.692Z,6.17
2018-09-29T07:03:03.148Z,7.60
2018-09-29T07:05:31.422Z,6.60
2018-09-29T07:07:59.796Z,6.73
2018-09-29T07:10:28.073Z,7.97
2018-09-29T07:12:57.495Z,7.13
2018-09-29T07:15:26.247Z,7.63
2018-09-29T07:17:54.575Z,8.17
2018-09-29T07:20:23.230Z,7.60
2018-09-29T07:22:51.526Z,7.00
2018-09-29T07:25:20.110Z,10.00
2018-09-29T07:27:48.606Z,8.13
2018-09-29T07:30:16.935Z,8.07
2018-09-29T07:32:45.257Z,8.50
2018-09-29T07:35:30.463Z,8.43
2018-09-29T07:38:00.302Z,8.70
2018-09-29T07:40:28.938Z,7.73
2018-09-29T07:42:57.429Z,8.17
2018-09-29T07:45:26.316Z,7.10
2018-09-29T07:47:55.709Z,8.43
2018-09-29T07:50:24.221Z,8.60
2018-09-29T07:52:52.483Z,8.73
2018-09-29T07:55:20.892Z,9.27
2018-09-29T07:57:52.978Z,8.07
2018-09-29T08:00:21.407Z,7.27
2018-09-29T08:02:49.691Z,7.53
2018-09-29T08:05:18.967Z,8.70
2018-09-29T08:07:47.274Z,7.70
2018-09-29T08:10:15.638Z,8.10
2018-09-29T08:12:43.954Z,9.40
2018-09-29T08:15:12.255Z,7.67
2018-09-29T08:17:40.527Z,7.53
2018-09-29T08:20:08.862Z,7.83
2018-09-29T08:22:37.194Z,7.73
2018-09-29T08:25:05.525Z,6.53
2018-09-29T08:27:33.910Z,6.53
2018-09-29T08:30:02.235Z,7.33
2018-09-29T08:32:30.474Z,7.07
2018-09-29T08:34:58.932Z,6.93
2018-09-29T08:37:27.455Z,6.63
2018-09-29T08:39:55.730Z,6.23
2018-09-29T08:42:24.180Z,7.27
2018-09-29T08:44:52.470Z,7.00
2018-09-29T08:47:20.771Z,5.67
2018-09-29T08:49:49.029Z,5.40
2018-09-29T08:52:17.330Z,5.60
2018-09-29T08:54:45.602Z,6.33
2018-09-29T08:57:13.933Z,5.90
2018-09-29T08:59:42.571Z,5.83
2018-09-29T09:02:10.846Z,5.50
2018-09-29T09:04:39.529Z,5.07
2018-09-29T09:07:12.078Z,5.50
2018-09-29T09:09:40.375Z,5.03
2018-09-29T09:12:08.756Z,5.30
2018-09-29T09:14:37.045Z,4.50
2018-09-29T09:17:05.665Z,5.57
2018-09-29T09:19:33.998Z,5.73
2018-09-29T09:22:02.342Z,5.70
2018-09-29T09:24:30.709Z,4.73
2018-09-29T09:27:00.362Z,4.90
2018-09-29T09:29:28.711Z,5.97
2018-09-29T09:31:57.605Z,4.20
2018-09-29T09:34:25.943Z,5.43
2018-09-29T09:36:54.217Z,4.47
2018-09-29T09:39:22.541Z,4.10
2018-09-29T09:41:50.814Z,4.20
2018-09-29T09:44:19.230Z,4.07
2018-09-29T09:46:47.503Z,4.20
2018-09-29T09:49:15.828Z,4.13
2018-09-29T09:51:44.143Z,3.47
2018-09-29T09:54:12.416Z,4.80
2018-09-29T09:56:40.799Z,3.53
2018-09-29T09:59:09.102Z,3.33
2018-09-29T10:01:42.746Z,4.07
2018-09-29T10:04:11.174Z,4.10
2018-09-29T10:06:39.477Z,4.80
2018-09-29T10:09:09.880Z,4.03
2018-09-29T10:11:38.210Z,3.93
2018-09-29T10:14:06.834Z,4.83
2018-09-29T10:16:35.408Z,3.77
2018-09-29T10:19:04.059Z,4.23
2018-09-29T10:21:32.451Z,4.97
2018-09-29T10:24:00.797Z,4.77
2018-09-29T10:26:29.093Z,3.57
2018-09-29T10:28:57.497Z,4.23
2018-09-29T10:31:26.051Z,3.07
2018-09-29T10:33:54.356Z,3.83
2018-09-29T10:36:22.619Z,2.70
2018-09-29T10:38:50.925Z,2.53
2018-09-29T10:41:19.353Z,2.67
2018-09-29T10:43:47.657Z,2.20
2018-09-29T10:46:15.930Z,2.00
2018-09-29T10:48:44.568Z,2.03
2018-09-29T10:51:13.058Z,2.40
2018-09-29T10:53:41.541Z,2.90
2018-09-29T10:56:09.829Z,2.43
2018-09-29T10:58:38.316Z,2.23
2018-09-29T11:01:08.729Z,2.30
2018-09-29T11:03:37.519Z,2.40
2018-09-29T11:06:05.828Z,2.53
2018-09-29T11:08:34.089Z,2.97
2018-09-29T11:11:02.391Z,2.50
2018-09-29T11:13:30.649Z,2.50
2018-09-29T11:15:58.993Z,1.90
2018-09-29T11:18:27.320Z,2.13
2018-09-29T11:20:55.617Z,2.20
2018-09-29T11:23:23.874Z,2.23
2018-09-29T11:25:52.295Z,2.50
2018-09-29T11:28:21.765Z,1.97
2018-09-29T11:30:50.317Z,2.20
2018-09-29T11:33:18.777Z,2.50
2018-09-29T11:35:47.185Z,2.07
2018-09-29T11:38:15.521Z,2.70
2018-09-29T11:40:43.817Z,1.93
2018-09-29T11:43:12.121Z,2.63
2018-09-29T11:45:40.416Z,2.20
2018-09-29T11:48:08.970Z,1.43
2018-09-29T11:50:37.276Z,2.30
2018-09-29T11:53:05.549Z,1.50
2018-09-29T11:55:33.805Z,1.70
2018-09-29T11:58:02.139Z,1.33
2018-09-29T12:00:30.458Z,1.43
2018-09-29T12:02:58.722Z,1.37
2018-09-29T12:05:27.082Z,1.70
2018-09-29T12:07:55.379Z,1.37
2018-09-29T12:10:23.692Z,1.67
2018-09-29T12:12:52.058Z,1.60
2018-09-29T12:15:21.332Z,1.67
2018-09-29T12:17:49.677Z,1.87
2018-09-29T12:20:17.946Z,1.97
2018-09-29T12:22:46.190Z,1.60
2018-09-29T12:25:14.461Z,1.47
2018-09-29T12:27:42.762Z,1.60
2018-09-29T12:30:11.443Z,1.33
2018-09-29T12:32:39.799Z,1.60
2018-09-29T12:35:08.217Z,1.53
2018-09-29T12:37:36.660Z,1.70
2018-09-29T12:40:05.061Z,1.87
2018-09-29T12:42:33.467Z,1.77
2018-09-29T12:45:01.683Z,1.90
2018-09-29T12:47:30.062Z,1.50
2018-09-29T12:49:58.582Z,1.87
2018-09-29T12:52:27.041Z,2.07
2018-09-29T12:54:56.156Z,2.13
2018-09-29T12:57:24.424Z,1.73
2018-09-29T12:59:52.829Z,1.70
2018-09-29T13:02:21.220Z,1.50
2018-09-29T13:04:49.596Z,1.73
2018-09-29T13:07:18.967Z,1.57
2018-09-29T13:09:47.289Z,1.40
2018-09-29T13:12:15.566Z,1.67
2018-09-29T13:14:44.659Z,1.53
2018-09-29T13:17:12.970Z,1.50
2018-09-29T13:19:41.297Z,1.47
2018-09-29T13:22:09.563Z,1.70
2018-09-29T13:24:37.862Z,1.40
2018-09-29T13:27:06.472Z,1.60
2018-09-29T13:29:34.827Z,1.90
2018-09-29T13:32:03.349Z,2.07
2018-09-29T13:34:31.607Z,1.67
2018-09-29T13:36:59.965Z,2.03
2018-09-29T13:39:29.500Z,1.33
2018-09-29T13:41:57.826Z,1.87
2018-09-29T13:44:26.176Z,1.83
2018-09-29T13:46:58.087Z,1.87
2018-09-29T13:49:27.934Z,2.00
2018-09-29T13:51:56.315Z,1.83
2018-09-29T13:54:28.413Z,1.90
2018-09-29T13:57:07.003Z,2.10
2018-09-29T13:59:46.762Z,1.67
2018-09-29T14:02:19.310Z,2.00
2018-09-29T14:04:49.555Z,1.80
2018-09-29T14:10:12.939Z,1.77
2018-09-29T14:12:41.216Z,2.07
2018-09-29T14:15:09.555Z,2.03
2018-09-29T14:17:38.725Z,2.20
2018-09-29T14:20:07.443Z,2.00
2018-09-29T14:22:35.802Z,2.90
2018-09-29T14:25:04.131Z,2.30
2018-09-29T14:27:32.443Z,2.40
2018-09-29T14:30:00.860Z,1.50
2018-09-29T14:32:30.244Z,1.77
2018-09-29T14:34:58.787Z,2.23
2018-09-29T14:37:27.276Z,1.70
2018-09-29T14:39:55.680Z,2.20
2018-09-29T14:42:24.065Z,2.30
2018-09-29T14:44:52.421Z,2.63
2018-09-29T14:47:20.756Z,2.73
2018-09-29T14:49:50.978Z,2.13
2018-09-29T14:52:19.357Z,2.10
2018-09-29T14:54:47.851Z,2.63
2018-09-29T14:57:16.162Z,1.67
2018-09-29T14:59:44.539Z,2.63
2018-09-29T15:02:12.947Z,2.40
2018-09-29T15:04:41.231Z,2.47
2018-09-29T15:07:09.577Z,2.40
2018-09-29T15:09:37.915Z,2.73
2018-09-29T15:12:06.259Z,2.03
2018-09-29T15:14:34.584Z,3.07
2018-09-29T15:17:03.073Z,2.33
2018-09-29T15:19:31.442Z,2.33
2018-09-29T15:21:59.783Z,2.60
2018-09-29T15:24:28.247Z,2.47
2018-09-29T15:26:56.660Z,2.63
2018-09-29T15:29:25.122Z,2.83
2018-09-29T15:31:53.442Z,2.20
2018-09-29T15:34:21.766Z,2.57
2018-09-29T15:36:50.186Z,2.03
2018-09-29T15:39:18.530Z,1.93
2018-09-29T15:41:49.062Z,2.27
2018-09-29T15:44:17.505Z,1.93
2018-09-29T15:46:45.919Z,1.80
2018-09-29T15:49:14.256Z,2.07
2018-09-29T15:51:42.610Z,1.40
2018-09-29T15:54:11.251Z,2.03
2018-09-29T15:56:39.854Z,1.50
2018-09-29T15:59:08.130Z,2.20
2018-09-29T16:01:36.582Z,1.50
2018-09-29T16:04:04.950Z,2.17
2018-09-29T16:06:33.271Z,1.30
2018-09-29T16:09:01.670Z,1.83
2018-09-29T16:11:29.913Z,1.70
2018-09-29T16:13:58.237Z,2.03
2018-09-29T16:16:26.575Z,1.80
2018-09-29T16:18:54.875Z,1.63
2018-09-29T16:21:23.337Z,1.60
2018-09-29T16:23:51.805Z,1.90
2018-09-29T16:26:20.143Z,1.33
2018-09-29T16:28:48.493Z,1.50
2018-09-29T16:31:18.003Z,2.33
2018-09-29T16:33:46.279Z,2.30
2018-09-29T16:36:14.603Z,2.20
2018-09-29T16:38:43.266Z,1.70
2018-09-29T16:41:11.672Z,1.70
2018-09-29T16:43:40.060Z,1.70
2018-09-29T16:46:09.242Z,2.53
2018-09-29T16:48:37.577Z,3.03
2018-09-29T16:51:05.891Z,2.73
2018-09-29T16:53:34.307Z,3.27
2018-09-29T16:56:02.605Z,2.27
2018-09-29T16:58:30.905Z,2.00
2018-09-29T17:01:00.213Z,1.90
2018-09-29T17:03:28.617Z,2.83
2018-09-29T17:05:56.893Z,6.40
2018-09-29T17:08:25.293Z,5.23
2018-09-29T17:10:53.615Z,4.30
2018-09-29T17:13:21.958Z,3.13
2018-09-29T17:15:50.428Z,2.50
2018-09-29T17:18:18.676Z,4.40
2018-09-29T17:20:47.132Z,5.70
2018-09-29T17:23:16.435Z,4.90
2018-09-29T17:25:44.775Z,4.50
2018-09-29T17:28:13.062Z,2.17
2018-09-29T17:30:41.449Z,2.03
2018-09-29T17:33:11.101Z,2.90
2018-09-29T17:35:39.394Z,3.00
2018-09-29T17:38:11.417Z,3.53
2018-09-29T17:40:39.698Z,2.30
2018-09-29T17:43:08.176Z,2.93
2018-09-29T17:45:36.518Z,5.77
2018-09-29T17:48:04.914Z,6.20
2018-09-29T17:50:33.326Z,7.60
2018-09-29T17:53:01.834Z,5.40
2018-09-29T17:55:30.286Z,3.00
2018-09-29T17:57:58.627Z,2.10
2018-09-29T18:00:26.990Z,1.63
2018-09-29T18:02:55.378Z,1.70
2018-09-29T18:05:23.840Z,1.90
2018-09-29T18:07:52.338Z,1.53
2018-09-29T18:10:20.696Z,1.37
2018-09-29T18:12:49.076Z,1.80
2018-09-29T18:15:17.498Z,2.60
2018-09-29T18:17:45.960Z,2.20
2018-09-29T18:20:14.352Z,1.90
2018-09-29T18:22:42.716Z,2.30
2018-09-29T18:25:11.410Z,1.93
2018-09-29T18:27:39.880Z,2.57
2018-09-29T18:30:08.290Z,1.90
2018-09-29T18:32:36.671Z,2.83
2018-09-29T18:35:05.191Z,2.80
2018-09-29T18:37:33.519Z,1.57
2018-09-29T18:40:01.934Z,1.67
2018-09-29T18:42:30.333Z,1.80
2018-09-29T18:44:58.794Z,1.87
2018-09-29T18:47:27.071Z,1.73
2018-09-29T18:49:55.558Z,1.70
2018-09-29T18:52:24.274Z,1.43
2018-09-29T18:54:52.758Z,1.43
2018-09-29T18:57:21.187Z,1.20
2018-09-29T18:59:49.591Z,1.87
2018-09-29T19:02:18.007Z,1.57
2018-09-29T19:04:46.484Z,1.90
2018-09-29T19:07:14.990Z,1.67
2018-09-29T19:09:43.423Z,1.90
2018-09-29T19:12:11.793Z,1.40
2018-09-29T19:14:40.196Z,2.17
2018-09-29T19:17:08.561Z,2.00
2018-09-29T19:19:37.020Z,2.07
2018-09-29T19:22:05.395Z,2.77
2018-09-29T19:24:33.798Z,2.00
2018-09-29T19:27:02.193Z,2.40
2018-09-29T19:29:30.552Z,2.40
2018-09-29T19:31:58.919Z,2.50
2018-09-29T19:34:27.275Z,2.40
2018-09-29T19:36:55.699Z,2.83
2018-09-29T19:39:24.246Z,1.93
2018-09-29T19:41:52.647Z,1.90
2018-09-29T19:44:20.988Z,2.10
2018-09-29T19:46:49.327Z,2.20
2018-09-29T19:49:18.192Z,1.90
2018-09-29T19:51:46.776Z,1.70
2018-09-29T19:54:15.078Z,2.13
2018-09-29T19:56:43.334Z,2.47
2018-09-29T19:59:11.610Z,2.60
2018-09-29T20:01:39.937Z,2.73
2018-09-29T20:04:08.187Z,2.00
2018-09-29T20:06:36.537Z,3.03
2018-09-29T20:09:07.190Z,2.67
2018-09-29T20:11:35.461Z,2.53
2018-09-29T20:14:03.706Z,2.27
2018-09-29T20:16:33.653Z,2.53
2018-09-29T20:19:02.137Z,2.37
2018-09-29T20:21:30.387Z,2.87
2018-09-29T20:23:58.910Z,2.93
2018-09-29T20:26:27.170Z,2.63
2018-09-29T20:28:55.436Z,2.33
2018-09-29T20:31:23.702Z,2.60
2018-09-29T20:33:52.004Z,3.00
2018-09-29T20:36:20.278Z,2.53
2018-09-29T20:38:48.702Z,2.13
2018-09-29T20:41:16.974Z,3.43
2018-09-29T20:43:45.237Z,3.00
2018-09-29T20:46:14.645Z,4.08
2018-09-29T20:48:43.021Z,3.93
2018-09-29T20:51:11.570Z,5.55
2018-09-29T20:53:40.350Z,6.67
2018-09-29T20:56:08.834Z,5.33
2018-09-29T20:58:37.377Z,4.90
2018-09-29T21:01:06.415Z,5.63
2018-09-29T21:03:34.730Z,5.47
2018-09-29T21:06:03.339Z,7.23
2018-09-29T21:08:31.683Z,7.40
2018-09-29T21:10:59.992Z,8.17
2018-09-29T21:13:28.663Z,9.17
2018-09-29T21:15:57.440Z,9.87
2018-09-29T21:18:25.852Z,9.17
2018-09-29T21:20:54.267Z,8.83
2018-09-29T21:23:22.582Z,7.70
2018-09-29T21:25:50.874Z,7.13
2018-09-29T21:28:19.323Z,7.53
2018-09-29T21:30:47.933Z,8.07
2018-09-29T21:33:16.250Z,7.50
2018-09-29T21:35:44.525Z,6.70
2018-09-29T21:38:12.816Z,5.90
2018-09-29T21:40:41.090Z,6.23
2018-09-29T21:43:09.437Z,6.27
2018-09-29T21:45:37.804Z,7.00
2018-09-29T21:48:06.144Z,4.53
2018-09-29T21:50:34.462Z,5.30
2018-09-29T21:53:02.815Z,4.23
2018-09-29T21:55:31.593Z,4.97
2018-09-29T21:57:59.927Z,3.73
2018-09-29T22:00:33.831Z,4.40
2018-09-29T22:03:02.130Z,4.63
2018-09-29T22:05:31.143Z,3.90
2018-09-29T22:07:59.638Z,5.10
2018-09-29T22:10:27.963Z,4.40
2018-09-29T22:12:56.234Z,4.17
2018-09-29T22:15:24.547Z,4.93
2018-09-29T22:17:52.858Z,4.53
2018-09-29T22:20:21.095Z,4.27
2018-09-29T22:22:50.256Z,5.00
2018-09-29T22:25:18.569Z,5.53
2018-09-29T22:27:46.856Z,6.07
2018-09-29T22:30:15.221Z,6.33
2018-09-29T22:32:43.497Z,6.27
2018-09-29T22:35:11.785Z,6.63
2018-09-29T22:37:40.139Z,5.60
2018-09-29T22:40:08.481Z,6.37
2018-09-29T22:42:36.815Z,5.73
2018-09-29T22:45:05.135Z,6.27
2018-09-29T22:47:33.499Z,6.67
2018-09-29T22:50:01.797Z,9.57
2018-09-29T22:52:30.066Z,8.20
2018-09-29T22:54:58.347Z,8.30
2018-09-29T22:57:26.965Z,8.47
2018-09-29T22:59:55.189Z,6.43
2018-09-29T23:02:23.462Z,8.10
2018-09-29T23:04:51.725Z,5.83
2018-09-29T23:07:20.040Z,5.63
2018-09-29T23:09:48.322Z,7.10
2018-09-29T23:12:16.590Z,7.23
2018-09-29T23:14:45.254Z,7.63
2018-09-29T23:17:13.543Z,8.97
2018-09-29T23:19:41.892Z,8.10
2018-09-29T23:22:10.178Z,8.43
2018-09-29T23:24:38.877Z,8.53
2018-09-29T23:27:07.157Z,8.63
2018-09-29T23:29:35.453Z,8.97
2018-09-29T23:32:03.765Z,7.97
2018-09-29T23:34:32.126Z,7.03
2018-09-29T23:37:00.376Z,7.53
2018-09-29T23:39:37.066Z,7.23
2018-09-29T23:42:05.412Z,7.43
2018-09-29T23:44:33.705Z,8.43
2018-09-29T23:47:02.030Z,7.37
2018-09-29T23:49:30.542Z,7.50
2018-09-29T23:51:58.983Z,7.37
2018-09-29T23:54:27.293Z,8.40
2018-09-29T23:56:55.619Z,7.70
2018-09-29T23:59:23.885Z,6.73
